createdAt,value
2024-03-16T00:00:11.578Z,10.87
2024-03-16T00:02:39.873Z,10.80
2024-03-16T00:05:07.777Z,10.82
2024-03-16T00:07:35.576Z,10.88
2024-03-16T00:10:03.615Z,10.75
2024-03-16T00:12:31.960Z,10.64
2024-03-16T00:14:59.857Z,10.49
2024-03-16T00:17:28.839Z,10.34
2024-03-16T00:19:56.429Z,10.47
2024-03-16T00:22:23.843Z,10.59
2024-03-16T00:24:51.782Z,10.62
2024-03-16T00:27:19.489Z,10.57
2024-03-16T00:29:47.247Z,10.75
2024-03-16T00:32:15.029Z,10.95
2024-03-16T00:34:42.713Z,10.52
2024-03-16T00:37:10.558Z,10.48
2024-03-16T00:39:38.469Z,10.54
2024-03-16T00:42:06.141Z,10.54
2024-03-16T00:44:33.781Z,10.49
2024-03-16T00:47:01.975Z,10.41
2024-03-16T00:49:29.799Z,10.38
2024-03-16T00:51:58.743Z,10.42
2024-03-16T00:54:26.841Z,10.46
2024-03-16T00:56:54.528Z,10.53
2024-03-16T00:59:22.299Z,10.51
2024-03-16T01:01:50.256Z,10.36
2024-03-16T01:04:18.043Z,10.43
2024-03-16T01:06:45.700Z,10.65
2024-03-16T01:09:17.378Z,10.46
2024-03-16T01:11:44.982Z,10.44
2024-03-16T01:14:12.869Z,10.46
2024-03-16T01:16:40.416Z,10.48
2024-03-16T01:19:08.501Z,10.50
2024-03-16T01:21:36.589Z,10.72
2024-03-16T01:24:04.550Z,10.54
2024-03-16T01:26:32.066Z,10.59
2024-03-16T01:29:01.989Z,10.63
2024-03-16T01:31:30.847Z,10.63
2024-03-16T01:33:58.566Z,10.50
2024-03-16T01:36:26.599Z,10.60
2024-03-16T01:38:56.560Z,10.58
2024-03-16T01:41:24.703Z,10.54
2024-03-16T01:43:52.581Z,10.63
2024-03-16T01:46:20.292Z,10.83
2024-03-16T01:48:53.182Z,10.63
2024-03-16T01:51:21.274Z,10.57
2024-03-16T01:53:49.413Z,10.60
2024-03-16T01:56:17.005Z,10.64
2024-03-16T01:58:46.833Z,10.61
2024-03-16T02:01:14.744Z,10.84
2024-03-16T02:03:43.803Z,11.12
2024-03-16T02:06:11.543Z,10.92
2024-03-16T02:08:39.369Z,10.78
2024-03-16T02:11:07.360Z,10.79
2024-03-16T02:13:34.980Z,10.31
2024-03-16T02:16:03.403Z,10.29
2024-03-16T02:18:31.315Z,10.27
2024-03-16T02:20:59.132Z,10.31
2024-03-16T02:23:26.954Z,10.76
2024-03-16T02:25:54.934Z,10.84
2024-03-16T02:28:22.521Z,10.84
2024-03-16T02:30:50.130Z,10.58
2024-03-16T02:33:18.169Z,10.48
2024-03-16T02:35:45.919Z,10.53
2024-03-16T02:38:13.580Z,10.54
2024-03-16T02:40:43.558Z,10.81
2024-03-16T02:43:11.177Z,10.70
2024-03-16T02:45:38.825Z,10.58
2024-03-16T02:48:07.091Z,10.64
2024-03-16T02:50:34.858Z,10.64
2024-03-16T02:53:02.459Z,10.65
2024-03-16T02:55:30.640Z,11.23
2024-03-16T02:57:58.446Z,11.31
2024-03-16T03:00:28.385Z,11.25
2024-03-16T03:02:56.556Z,10.97
2024-03-16T03:05:25.594Z,10.85
2024-03-16T03:07:53.986Z,10.94
2024-03-16T03:10:23.139Z,10.89
2024-03-16T03:12:51.065Z,11.21
2024-03-16T03:15:19.687Z,11.43
2024-03-16T03:17:48.310Z,11.49
2024-03-16T03:20:15.937Z,11.15
2024-03-16T03:22:43.465Z,10.88
2024-03-16T03:25:11.839Z,10.82
2024-03-16T03:27:39.548Z,10.83
2024-03-16T03:30:07.504Z,11.02
2024-03-16T03:32:35.500Z,11.01
2024-03-16T03:35:03.193Z,10.80
2024-03-16T03:37:30.855Z,10.67
2024-03-16T03:39:59.138Z,10.60
2024-03-16T03:42:27.016Z,10.69
2024-03-16T03:45:23.884Z,10.89
2024-03-16T03:48:15.652Z,11.00
2024-03-16T03:50:44.329Z,11.40
2024-03-16T03:53:12.151Z,11.11
2024-03-16T03:55:39.733Z,11.25
2024-03-16T03:58:08.201Z,11.11
2024-03-16T04:00:36.278Z,11.27
2024-03-16T04:03:07.677Z,11.13
2024-03-16T04:05:35.496Z,10.99
2024-03-16T04:08:06.000Z,10.83
2024-03-16T04:10:35.434Z,10.65
2024-03-16T04:13:03.749Z,10.75
2024-03-16T04:15:32.094Z,10.82
2024-03-16T04:18:00.056Z,10.82
2024-03-16T04:20:27.838Z,10.98
2024-03-16T04:22:55.521Z,11.01
2024-03-16T04:25:23.490Z,10.90
2024-03-16T04:27:51.356Z,10.80
2024-03-16T04:30:19.004Z,10.76
2024-03-16T04:32:47.027Z,10.71
2024-03-16T04:35:14.675Z,10.92
2024-03-16T04:37:42.426Z,10.83
2024-03-16T04:40:12.167Z,11.03
2024-03-16T04:42:40.057Z,11.06
2024-03-16T04:45:08.894Z,11.05
2024-03-16T04:47:36.720Z,10.90
2024-03-16T04:50:04.504Z,11.06
2024-03-16T04:52:32.645Z,11.06
2024-03-16T04:55:00.445Z,10.97
2024-03-16T04:57:28.713Z,10.97
2024-03-16T04:59:56.345Z,11.03
2024-03-16T05:02:24.327Z,11.02
2024-03-16T05:04:52.594Z,10.98
2024-03-16T05:07:21.488Z,11.13
2024-03-16T05:09:50.902Z,11.25
2024-03-16T05:12:19.820Z,11.31
2024-03-16T05:14:47.381Z,11.33
2024-03-16T05:17:15.411Z,11.27
2024-03-16T05:19:43.427Z,11.11
2024-03-16T05:22:11.011Z,11.34
2024-03-16T05:24:39.147Z,11.40
2024-03-16T05:27:08.008Z,11.37
2024-03-16T05:29:38.593Z,11.47
2024-03-16T05:32:06.787Z,11.93
2024-03-16T05:34:34.504Z,11.76
2024-03-16T05:37:02.519Z,11.57
2024-03-16T05:39:30.474Z,11.33
2024-03-16T05:41:58.244Z,11.30
2024-03-16T05:44:26.643Z,12.06
2024-03-16T05:46:54.646Z,11.63
2024-03-16T05:49:23.851Z,11.53
2024-03-16T05:51:52.825Z,11.31
2024-03-16T05:54:21.076Z,11.57
2024-03-16T05:56:49.571Z,11.78
2024-03-16T05:59:17.190Z,11.67
2024-03-16T06:01:46.818Z,11.58
2024-03-16T06:04:17.214Z,11.43
2024-03-16T06:06:44.933Z,11.35
2024-03-16T06:09:12.982Z,11.41
2024-03-16T06:11:41.668Z,11.40
2024-03-16T06:14:12.102Z,11.43
2024-03-16T06:16:41.364Z,11.49
2024-03-16T06:19:09.326Z,11.53
2024-03-16T06:21:36.930Z,11.67
2024-03-16T06:24:05.285Z,11.66
2024-03-16T06:26:37.460Z,12.09
2024-03-16T06:29:10.150Z,11.96
2024-03-16T06:31:39.604Z,11.90
2024-03-16T06:34:07.908Z,12.21
2024-03-16T06:36:37.155Z,12.40
2024-03-16T06:39:12.381Z,12.47
2024-03-16T06:41:40.269Z,12.35
2024-03-16T06:44:08.154Z,12.10
2024-03-16T06:46:35.764Z,12.05
2024-03-16T06:49:07.369Z,11.92
2024-03-16T06:51:36.105Z,11.92
2024-03-16T06:54:07.036Z,12.05
2024-03-16T06:56:34.739Z,12.06
2024-03-16T06:59:02.678Z,12.46
2024-03-16T07:01:30.626Z,12.54
2024-03-16T07:03:58.370Z,12.34
2024-03-16T07:06:26.624Z,12.37
2024-03-16T07:08:54.297Z,12.28
2024-03-16T07:11:22.008Z,12.25
2024-03-16T07:13:50.085Z,12.39
2024-03-16T07:16:17.872Z,12.54
2024-03-16T07:18:46.071Z,12.90
2024-03-16T07:21:17.167Z,13.16
2024-03-16T07:23:45.155Z,12.98
2024-03-16T07:26:12.685Z,12.94
2024-03-16T07:28:40.569Z,12.83
2024-03-16T07:31:08.809Z,12.71
2024-03-16T07:33:36.539Z,12.71
2024-03-16T07:36:05.637Z,12.77
2024-03-16T07:38:33.613Z,12.86
2024-03-16T07:41:01.124Z,13.01
2024-03-16T07:43:28.874Z,12.90
2024-03-16T07:45:56.368Z,13.17
2024-03-16T07:48:24.158Z,13.10
2024-03-16T07:50:59.325Z,13.24
2024-03-16T07:53:27.104Z,13.32
2024-03-16T07:56:00.705Z,13.29
2024-03-16T07:58:28.477Z,13.30
2024-03-16T08:00:56.335Z,13.48
2024-03-16T08:03:24.656Z,13.41
2024-03-16T08:05:52.198Z,13.41
2024-03-16T08:08:20.757Z,13.37
2024-03-16T08:10:49.800Z,13.58
2024-03-16T08:13:17.316Z,13.46
2024-03-16T08:15:44.975Z,13.12
2024-03-16T08:18:13.594Z,13.33
2024-03-16T08:20:41.161Z,13.56
2024-03-16T08:23:08.715Z,13.66
2024-03-16T08:25:36.617Z,13.72
2024-03-16T08:28:04.466Z,13.81
2024-03-16T08:30:32.189Z,13.73
2024-03-16T08:33:00.117Z,14.00
2024-03-16T08:35:27.699Z,14.08
2024-03-16T08:37:55.636Z,14.33
2024-03-16T08:40:23.514Z,14.64
2024-03-16T08:42:52.817Z,14.46
2024-03-16T08:45:20.628Z,14.58
2024-03-16T08:47:48.601Z,14.25
2024-03-16T08:50:16.501Z,14.66
2024-03-16T08:52:44.589Z,14.64
2024-03-16T08:55:14.663Z,14.80
2024-03-16T08:57:45.356Z,14.79
2024-03-16T09:00:16.292Z,14.79
2024-03-16T09:02:44.396Z,14.84
2024-03-16T09:05:12.295Z,14.85
2024-03-16T09:07:40.595Z,15.50
2024-03-16T09:10:09.640Z,15.76
2024-03-16T09:12:37.626Z,15.74
2024-03-16T09:15:10.074Z,15.21
2024-03-16T09:17:37.943Z,15.23
2024-03-16T09:20:11.000Z,15.22
2024-03-16T09:22:38.719Z,15.00
2024-03-16T09:25:07.859Z,15.06
2024-03-16T09:27:36.772Z,15.52
2024-03-16T09:30:12.993Z,15.40
2024-03-16T09:32:41.634Z,15.60
2024-03-16T09:35:12.030Z,15.48
2024-03-16T09:37:40.080Z,15.44
2024-03-16T09:40:14.748Z,15.22
2024-03-16T09:42:42.933Z,15.51
